sensor_id;sensor_type;location;lat;lon;timestamp;temperature;humidity
44729;DHT22;30457;53.590;9.922;2022-12-10T00:02:24;4.80;63.10
44729;DHT22;30457;53.590;9.922;2022-12-10T00:06:50;4.80;63.10
44729;DHT22;30457;53.590;9.922;2022-12-10T00:11:17;4.90;63.00
44729;DHT22;30457;53.590;9.922;2022-12-10T00:15:42;4.90;62.90
44729;DHT22;30457;53.590;9.922;2022-12-10T00:20:09;4.90;62.80
44729;DHT22;30457;53.590;9.922;2022-12-10T00:24:34;4.80;62.80
44729;DHT22;30457;53.590;9.922;2022-12-10T00:29:02;4.90;62.80
44729;DHT22;30457;53.590;9.922;2022-12-10T00:33:28;4.90;62.70
44729;DHT22;30457;53.590;9.922;2022-12-10T00:37:53;4.90;62.70
44729;DHT22;30457;53.590;9.922;2022-12-10T00:42:20;4.80;62.60
44729;DHT22;30457;53.590;9.922;2022-12-10T00:46:46;4.90;62.60
44729;DHT22;30457;53.590;9.922;2022-12-10T00:51:17;4.80;62.50
44729;DHT22;30457;53.590;9.922;2022-12-10T00:55:43;4.90;62.50
44729;DHT22;30457;53.590;9.922;2022-12-10T01:00:09;4.80;62.50
44729;DHT22;30457;53.590;9.922;2022-12-10T01:04:34;4.80;62.60
44729;DHT22;30457;53.590;9.922;2022-12-10T01:09:06;4.90;62.60
44729;DHT22;30457;53.590;9.922;2022-12-10T01:13:31;4.80;62.40
44729;DHT22;30457;53.590;9.922;2022-12-10T01:17:57;4.80;62.50
44729;DHT22;30457;53.590;9.922;2022-12-10T01:22:23;4.80;62.50
44729;DHT22;30457;53.590;9.922;2022-12-10T01:26:48;4.80;62.40
44729;DHT22;30457;53.590;9.922;2022-12-10T01:31:20;4.80;62.40
44729;DHT22;30457;53.590;9.922;2022-12-10T01:35:46;4.80;62.30
44729;DHT22;30457;53.590;9.922;2022-12-10T01:40:13;4.80;62.30
44729;DHT22;30457;53.590;9.922;2022-12-10T01:49:10;4.80;62.20
44729;DHT22;30457;53.590;9.922;2022-12-10T01:53:37;4.80;62.20
44729;DHT22;30457;53.590;9.922;2022-12-10T01:58:02;4.80;62.30
44729;DHT22;30457;53.590;9.922;2022-12-10T02:02:37;4.80;62.30
44729;DHT22;30457;53.590;9.922;2022-12-10T02:17:03;4.80;62.00
44729;DHT22;30457;53.590;9.922;2022-12-10T02:21:40;4.80;62.10
44729;DHT22;30457;53.590;9.922;2022-12-10T02:26:30;4.80;61.90
44729;DHT22;30457;53.590;9.922;2022-12-10T02:30:58;4.80;61.80
44729;DHT22;30457;53.590;9.922;2022-12-10T02:35:28;4.80;61.70
44729;DHT22;30457;53.590;9.922;2022-12-10T02:39:58;4.80;61.80
44729;DHT22;30457;53.590;9.922;2022-12-10T02:44:27;4.70;61.60
44729;DHT22;30457;53.590;9.922;2022-12-10T02:48:54;4.80;61.80
44729;DHT22;30457;53.590;9.922;2022-12-10T02:53:20;4.70;61.60
44729;DHT22;30457;53.590;9.922;2022-12-10T02:58:09;4.80;61.80
44729;DHT22;30457;53.590;9.922;2022-12-10T03:07:37;4.80;61.60
44729;DHT22;30457;53.590;9.922;2022-12-10T03:12:38;4.80;61.70
44729;DHT22;30457;53.590;9.922;2022-12-10T03:17:05;4.80;61.50
44729;DHT22;30457;53.590;9.922;2022-12-10T03:21:33;4.80;61.40
44729;DHT22;30457;53.590;9.922;2022-12-10T03:26:08;4.80;61.30
44729;DHT22;30457;53.590;9.922;2022-12-10T03:30:36;4.80;61.30
44729;DHT22;30457;53.590;9.922;2022-12-10T03:35:03;4.80;61.40
44729;DHT22;30457;53.590;9.922;2022-12-10T03:39:30;4.80;61.30
44729;DHT22;30457;53.590;9.922;2022-12-10T03:43:57;4.80;62.10
44729;DHT22;30457;53.590;9.922;2022-12-10T03:48:23;4.80;62.20
44729;DHT22;30457;53.590;9.922;2022-12-10T03:52:49;4.80;61.40
44729;DHT22;30457;53.590;9.922;2022-12-10T03:57:14;4.80;61.30
44729;DHT22;30457;53.590;9.922;2022-12-10T04:01:40;4.80;61.20
44729;DHT22;30457;53.590;9.922;2022-12-10T04:06:13;4.80;61.30
44729;DHT22;30457;53.590;9.922;2022-12-10T04:10:39;4.80;61.20
44729;DHT22;30457;53.590;9.922;2022-12-10T04:15:05;4.80;61.20
44729;DHT22;30457;53.590;9.922;2022-12-10T04:19:49;4.80;61.40
44729;DHT22;30457;53.590;9.922;2022-12-10T04:24:17;4.90;61.40
44729;DHT22;30457;53.590;9.922;2022-12-10T04:29:01;4.90;61.10
44729;DHT22;30457;53.590;9.922;2022-12-10T04:33:27;4.90;61.10
44729;DHT22;30457;53.590;9.922;2022-12-10T04:37:53;4.90;61.40
44729;DHT22;30457;53.590;9.922;2022-12-10T04:42:19;4.90;61.40
44729;DHT22;30457;53.590;9.922;2022-12-10T04:46:45;4.90;61.20
44729;DHT22;30457;53.590;9.922;2022-12-10T04:51:11;4.90;61.20
44729;DHT22;30457;53.590;9.922;2022-12-10T04:55:37;4.90;61.00
44729;DHT22;30457;53.590;9.922;2022-12-10T05:00:03;4.90;60.80
44729;DHT22;30457;53.590;9.922;2022-12-10T05:04:28;4.90;60.80
44729;DHT22;30457;53.590;9.922;2022-12-10T05:08:54;4.90;61.00
44729;DHT22;30457;53.590;9.922;2022-12-10T05:13:20;4.90;61.00
44729;DHT22;30457;53.590;9.922;2022-12-10T05:17:45;4.90;61.00
44729;DHT22;30457;53.590;9.922;2022-12-10T05:22:11;4.90;61.00
44729;DHT22;30457;53.590;9.922;2022-12-10T05:26:57;4.90;60.90
44729;DHT22;30457;53.590;9.922;2022-12-10T05:31:25;4.90;60.70
44729;DHT22;30457;53.590;9.922;2022-12-10T05:36:02;4.90;60.30
44729;DHT22;30457;53.590;9.922;2022-12-10T05:40:28;4.90;60.00
44729;DHT22;30457;53.590;9.922;2022-12-10T05:44:53;4.90;60.40
44729;DHT22;30457;53.590;9.922;2022-12-10T05:49:19;4.90;60.60
44729;DHT22;30457;53.590;9.922;2022-12-10T05:53:45;5.00;60.80
44729;DHT22;30457;53.590;9.922;2022-12-10T05:58:10;5.00;60.60
44729;DHT22;30457;53.590;9.922;2022-12-10T06:02:36;5.00;60.10
44729;DHT22;30457;53.590;9.922;2022-12-10T06:07:01;5.00;60.00
44729;DHT22;30457;53.590;9.922;2022-12-10T06:11:27;4.90;60.00
44729;DHT22;30457;53.590;9.922;2022-12-10T06:15:53;4.90;60.00
44729;DHT22;30457;53.590;9.922;2022-12-10T06:20:19;4.90;60.00
44729;DHT22;30457;53.590;9.922;2022-12-10T06:24:44;4.90;60.00
44729;DHT22;30457;53.590;9.922;2022-12-10T06:29:10;4.90;60.00
44729;DHT22;30457;53.590;9.922;2022-12-10T06:33:35;4.90;60.20
44729;DHT22;30457;53.590;9.922;2022-12-10T06:38:02;4.90;60.30
44729;DHT22;30457;53.590;9.922;2022-12-10T06:42:27;4.90;60.10
44729;DHT22;30457;53.590;9.922;2022-12-10T06:46:53;4.90;60.10
44729;DHT22;30457;53.590;9.922;2022-12-10T06:51:18;4.90;60.00
44729;DHT22;30457;53.590;9.922;2022-12-10T06:55:44;4.90;60.00
44729;DHT22;30457;53.590;9.922;2022-12-10T07:00:10;4.90;59.80
44729;DHT22;30457;53.590;9.922;2022-12-10T07:04:35;4.90;59.80
44729;DHT22;30457;53.590;9.922;2022-12-10T07:09:01;4.80;59.90
44729;DHT22;30457;53.590;9.922;2022-12-10T07:13:26;4.80;60.00
44729;DHT22;30457;53.590;9.922;2022-12-10T07:17:52;4.80;59.90
44729;DHT22;30457;53.590;9.922;2022-12-10T07:22:17;4.80;59.90
44729;DHT22;30457;53.590;9.922;2022-12-10T07:26:44;4.80;60.00
44729;DHT22;30457;53.590;9.922;2022-12-10T07:31:10;4.80;60.10
44729;DHT22;30457;53.590;9.922;2022-12-10T07:35:38;4.80;60.00
44729;DHT22;30457;53.590;9.922;2022-12-10T07:40:04;4.80;59.90
44729;DHT22;30457;53.590;9.922;2022-12-10T07:44:30;4.70;59.80
44729;DHT22;30457;53.590;9.922;2022-12-10T07:48:56;4.70;59.80
44729;DHT22;30457;53.590;9.922;2022-12-10T07:53:22;4.70;59.80
44729;DHT22;30457;53.590;9.922;2022-12-10T07:57:47;4.60;59.60
44729;DHT22;30457;53.590;9.922;2022-12-10T08:02:13;4.60;59.70
44729;DHT22;30457;53.590;9.922;2022-12-10T08:06:39;4.60;59.80
44729;DHT22;30457;53.590;9.922;2022-12-10T08:11:06;4.60;59.70
44729;DHT22;30457;53.590;9.922;2022-12-10T08:15:32;4.60;59.70
44729;DHT22;30457;53.590;9.922;2022-12-10T08:19:57;4.50;59.70
44729;DHT22;30457;53.590;9.922;2022-12-10T08:24:23;4.60;59.90
44729;DHT22;30457;53.590;9.922;2022-12-10T08:28:49;4.50;59.90
44729;DHT22;30457;53.590;9.922;2022-12-10T08:33:15;4.50;59.80
44729;DHT22;30457;53.590;9.922;2022-12-10T08:37:41;4.50;59.80
44729;DHT22;30457;53.590;9.922;2022-12-10T08:42:07;4.50;59.90
44729;DHT22;30457;53.590;9.922;2022-12-10T08:46:33;4.50;59.90
44729;DHT22;30457;53.590;9.922;2022-12-10T08:50:58;4.50;60.00
44729;DHT22;30457;53.590;9.922;2022-12-10T08:55:24;4.50;60.10
44729;DHT22;30457;53.590;9.922;2022-12-10T08:59:49;4.50;60.20
44729;DHT22;30457;53.590;9.922;2022-12-10T09:04:15;4.50;60.30
44729;DHT22;30457;53.590;9.922;2022-12-10T09:08:41;4.50;60.60
44729;DHT22;30457;53.590;9.922;2022-12-10T09:13:07;4.50;60.50
44729;DHT22;30457;53.590;9.922;2022-12-10T09:17:35;4.50;60.50
44729;DHT22;30457;53.590;9.922;2022-12-10T09:22:01;4.50;61.30
44729;DHT22;30457;53.590;9.922;2022-12-10T09:26:27;4.50;60.50
44729;DHT22;30457;53.590;9.922;2022-12-10T09:31:00;4.50;60.50
44729;DHT22;30457;53.590;9.922;2022-12-10T09:35:26;4.50;60.70
44729;DHT22;30457;53.590;9.922;2022-12-10T09:39:51;4.50;60.50
44729;DHT22;30457;53.590;9.922;2022-12-10T09:44:36;4.50;60.50
44729;DHT22;30457;53.590;9.922;2022-12-10T09:49:22;4.50;60.50
44729;DHT22;30457;53.590;9.922;2022-12-10T09:53:49;4.50;60.80
44729;DHT22;30457;53.590;9.922;2022-12-10T09:58:26;4.50;61.00
44729;DHT22;30457;53.590;9.922;2022-12-10T10:02:56;4.60;61.00
44729;DHT22;30457;53.590;9.922;2022-12-10T10:07:26;4.60;61.00
44729;DHT22;30457;53.590;9.922;2022-12-10T10:11:53;4.60;61.10
44729;DHT22;30457;53.590;9.922;2022-12-10T10:16:26;4.60;60.70
44729;DHT22;30457;53.590;9.922;2022-12-10T10:20:54;4.60;60.30
44729;DHT22;30457;53.590;9.922;2022-12-10T10:25:20;4.60;60.20
44729;DHT22;30457;53.590;9.922;2022-12-10T10:29:48;4.60;60.10
44729;DHT22;30457;53.590;9.922;2022-12-10T10:34:20;4.60;60.30
44729;DHT22;30457;53.590;9.922;2022-12-10T10:38:47;4.60;60.40
44729;DHT22;30457;53.590;9.922;2022-12-10T10:43:26;4.70;60.50
44729;DHT22;30457;53.590;9.922;2022-12-10T10:48:15;4.70;60.40
44729;DHT22;30457;53.590;9.922;2022-12-10T10:52:42;4.70;60.80
44729;DHT22;30457;53.590;9.922;2022-12-10T10:57:32;4.70;60.50
44729;DHT22;30457;53.590;9.922;2022-12-10T11:02:20;4.70;60.30
44729;DHT22;30457;53.590;9.922;2022-12-10T11:06:48;4.80;60.50
44729;DHT22;30457;53.590;9.922;2022-12-10T11:11:32;4.80;60.70
44729;DHT22;30457;53.590;9.922;2022-12-10T11:16:09;4.80;60.50
44729;DHT22;30457;53.590;9.922;2022-12-10T11:20:36;4.90;60.60
44729;DHT22;30457;53.590;9.922;2022-12-10T11:25:01;4.90;60.40
44729;DHT22;30457;53.590;9.922;2022-12-10T11:29:49;4.90;60.20
44729;DHT22;30457;53.590;9.922;2022-12-10T11:34:35;4.90;60.00
44729;DHT22;30457;53.590;9.922;2022-12-10T11:39:19;5.00;60.10
44729;DHT22;30457;53.590;9.922;2022-12-10T11:44:07;5.00;60.00
44729;DHT22;30457;53.590;9.922;2022-12-10T11:58:47;4.90;59.80
44729;DHT22;30457;53.590;9.922;2022-12-10T12:03:52;4.90;59.80
44729;DHT22;30457;53.590;9.922;2022-12-10T12:08:49;4.90;59.50
44729;DHT22;30457;53.590;9.922;2022-12-10T12:13:25;4.90;59.40
44729;DHT22;30457;53.590;9.922;2022-12-10T12:17:56;4.90;59.70
44729;DHT22;30457;53.590;9.922;2022-12-10T12:22:26;4.90;59.80
44729;DHT22;30457;53.590;9.922;2022-12-10T12:27:00;4.90;59.70
44729;DHT22;30457;53.590;9.922;2022-12-10T12:31:34;4.90;59.60
44729;DHT22;30457;53.590;9.922;2022-12-10T12:36:05;4.90;59.60
44729;DHT22;30457;53.590;9.922;2022-12-10T12:40:40;4.90;59.50
44729;DHT22;30457;53.590;9.922;2022-12-10T12:45:19;4.90;59.50
44729;DHT22;30457;53.590;9.922;2022-12-10T12:49:45;4.90;59.40
44729;DHT22;30457;53.590;9.922;2022-12-10T12:54:13;4.90;59.50
44729;DHT22;30457;53.590;9.922;2022-12-10T12:59:06;4.80;59.50
44729;DHT22;30457;53.590;9.922;2022-12-10T13:03:36;4.80;59.30
44729;DHT22;30457;53.590;9.922;2022-12-10T13:12:48;4.80;59.40
44729;DHT22;30457;53.590;9.922;2022-12-10T13:26:31;4.80;59.40
44729;DHT22;30457;53.590;9.922;2022-12-10T13:35:59;4.70;59.60
44729;DHT22;30457;53.590;9.922;2022-12-10T13:49:27;4.80;59.60
44729;DHT22;30457;53.590;9.922;2022-12-10T14:04:15;4.70;59.40
44729;DHT22;30457;53.590;9.922;2022-12-10T14:09:17;4.70;59.40
44729;DHT22;30457;53.590;9.922;2022-12-10T14:13:47;4.60;59.40
44729;DHT22;30457;53.590;9.922;2022-12-10T14:18:15;4.70;59.60
44729;DHT22;30457;53.590;9.922;2022-12-10T14:22:50;4.60;59.40
44729;DHT22;30457;53.590;9.922;2022-12-10T14:27:20;4.60;59.50
44729;DHT22;30457;53.590;9.922;2022-12-10T14:31:49;4.60;59.50
44729;DHT22;30457;53.590;9.922;2022-12-10T14:36:18;4.60;59.50
44729;DHT22;30457;53.590;9.922;2022-12-10T14:40:45;4.60;59.90
44729;DHT22;30457;53.590;9.922;2022-12-10T14:45:13;4.60;59.30
44729;DHT22;30457;53.590;9.922;2022-12-10T14:49:46;4.60;59.90
44729;DHT22;30457;53.590;9.922;2022-12-10T14:54:35;4.60;59.40
44729;DHT22;30457;53.590;9.922;2022-12-10T15:03:29;4.70;59.50
44729;DHT22;30457;53.590;9.922;2022-12-10T15:08:04;4.60;59.40
44729;DHT22;30457;53.590;9.922;2022-12-10T15:12:45;4.60;59.30
44729;DHT22;30457;53.590;9.922;2022-12-10T15:17:39;4.60;59.50
44729;DHT22;30457;53.590;9.922;2022-12-10T15:26:44;4.60;59.00
44729;DHT22;30457;53.590;9.922;2022-12-10T15:31:14;4.50;59.10
44729;DHT22;30457;53.590;9.922;2022-12-10T15:35:44;4.50;59.00
44729;DHT22;30457;53.590;9.922;2022-12-10T15:40:28;4.50;58.90
44729;DHT22;30457;53.590;9.922;2022-12-10T15:45:04;4.50;58.80
44729;DHT22;30457;53.590;9.922;2022-12-10T15:49:34;4.40;58.90
44729;DHT22;30457;53.590;9.922;2022-12-10T15:53:59;4.40;58.90
44729;DHT22;30457;53.590;9.922;2022-12-10T15:58:25;4.40;58.80
44729;DHT22;30457;53.590;9.922;2022-12-10T16:02:57;4.30;58.90
44729;DHT22;30457;53.590;9.922;2022-12-10T16:07:23;4.30;58.90
44729;DHT22;30457;53.590;9.922;2022-12-10T16:11:48;4.30;58.70
44729;DHT22;30457;53.590;9.922;2022-12-10T16:16:14;4.20;58.60
44729;DHT22;30457;53.590;9.922;2022-12-10T16:20:40;4.20;58.70
44729;DHT22;30457;53.590;9.922;2022-12-10T16:25:06;4.20;58.80
44729;DHT22;30457;53.590;9.922;2022-12-10T16:29:32;4.10;58.70
44729;DHT22;30457;53.590;9.922;2022-12-10T16:33:57;4.10;58.80
44729;DHT22;30457;53.590;9.922;2022-12-10T16:38:23;4.10;58.80
44729;DHT22;30457;53.590;9.922;2022-12-10T16:42:50;4.10;58.80
44729;DHT22;30457;53.590;9.922;2022-12-10T16:47:16;4.10;58.80
44729;DHT22;30457;53.590;9.922;2022-12-10T16:51:42;4.10;59.00
44729;DHT22;30457;53.590;9.922;2022-12-10T16:56:13;4.10;58.90
44729;DHT22;30457;53.590;9.922;2022-12-10T17:00:40;4.10;59.10
44729;DHT22;30457;53.590;9.922;2022-12-10T17:05:29;4.10;59.40
44729;DHT22;30457;53.590;9.922;2022-12-10T17:09:55;4.10;59.40
44729;DHT22;30457;53.590;9.922;2022-12-10T17:14:27;4.20;59.40
44729;DHT22;30457;53.590;9.922;2022-12-10T17:18:53;4.20;59.20
44729;DHT22;30457;53.590;9.922;2022-12-10T17:23:19;4.20;59.10
44729;DHT22;30457;53.590;9.922;2022-12-10T17:27:46;4.20;59.00
44729;DHT22;30457;53.590;9.922;2022-12-10T17:32:13;4.20;58.90
44729;DHT22;30457;53.590;9.922;2022-12-10T17:36:41;4.20;58.80
44729;DHT22;30457;53.590;9.922;2022-12-10T17:41:10;4.20;58.70
44729;DHT22;30457;53.590;9.922;2022-12-10T17:45:37;4.10;58.50
44729;DHT22;30457;53.590;9.922;2022-12-10T17:50:03;4.10;58.40
44729;DHT22;30457;53.590;9.922;2022-12-10T17:54:38;4.00;58.40
44729;DHT22;30457;53.590;9.922;2022-12-10T17:59:04;4.00;58.50
44729;DHT22;30457;53.590;9.922;2022-12-10T18:03:29;3.90;58.60
44729;DHT22;30457;53.590;9.922;2022-12-10T18:07:55;3.90;58.60
44729;DHT22;30457;53.590;9.922;2022-12-10T18:12:21;3.90;58.60
44729;DHT22;30457;53.590;9.922;2022-12-10T18:16:46;3.80;58.60
44729;DHT22;30457;53.590;9.922;2022-12-10T18:21:16;3.80;58.70
44729;DHT22;30457;53.590;9.922;2022-12-10T18:25:47;3.80;58.80
44729;DHT22;30457;53.590;9.922;2022-12-10T18:30:19;3.80;58.80
44729;DHT22;30457;53.590;9.922;2022-12-10T18:34:45;3.80;59.00
44729;DHT22;30457;53.590;9.922;2022-12-10T18:39:18;3.80;59.00
44729;DHT22;30457;53.590;9.922;2022-12-10T18:43:44;3.80;58.70
44729;DHT22;30457;53.590;9.922;2022-12-10T18:48:10;3.70;58.70
44729;DHT22;30457;53.590;9.922;2022-12-10T18:52:35;3.70;59.40
44729;DHT22;30457;53.590;9.922;2022-12-10T18:57:01;3.60;59.00
44729;DHT22;30457;53.590;9.922;2022-12-10T19:01:27;3.60;59.00
44729;DHT22;30457;53.590;9.922;2022-12-10T19:05:53;3.60;58.90
44729;DHT22;30457;53.590;9.922;2022-12-10T19:10:21;3.60;58.90
44729;DHT22;30457;53.590;9.922;2022-12-10T19:14:47;3.60;59.00
44729;DHT22;30457;53.590;9.922;2022-12-10T19:19:14;3.60;58.90
44729;DHT22;30457;53.590;9.922;2022-12-10T19:23:40;3.60;59.00
44729;DHT22;30457;53.590;9.922;2022-12-10T19:28:06;3.60;58.90
44729;DHT22;30457;53.590;9.922;2022-12-10T19:32:31;3.60;58.80
44729;DHT22;30457;53.590;9.922;2022-12-10T19:36:57;3.60;58.70
44729;DHT22;30457;53.590;9.922;2022-12-10T19:41:22;3.50;58.60
44729;DHT22;30457;53.590;9.922;2022-12-10T19:45:48;3.50;58.60
44729;DHT22;30457;53.590;9.922;2022-12-10T19:50:15;3.50;58.60
44729;DHT22;30457;53.590;9.922;2022-12-10T19:54:41;3.50;58.70
44729;DHT22;30457;53.590;9.922;2022-12-10T19:59:16;3.50;58.80
44729;DHT22;30457;53.590;9.922;2022-12-10T20:03:42;3.50;58.60
44729;DHT22;30457;53.590;9.922;2022-12-10T20:08:10;3.40;58.90
44729;DHT22;30457;53.590;9.922;2022-12-10T20:12:35;3.40;58.70
44729;DHT22;30457;53.590;9.922;2022-12-10T20:17:01;3.40;58.80
44729;DHT22;30457;53.590;9.922;2022-12-10T20:21:27;3.40;58.70
44729;DHT22;30457;53.590;9.922;2022-12-10T20:25:54;3.40;58.50
44729;DHT22;30457;53.590;9.922;2022-12-10T20:30:26;3.40;58.60
44729;DHT22;30457;53.590;9.922;2022-12-10T20:34:52;3.40;58.60
44729;DHT22;30457;53.590;9.922;2022-12-10T20:39:21;3.40;58.80
44729;DHT22;30457;53.590;9.922;2022-12-10T20:43:47;3.40;59.10
44729;DHT22;30457;53.590;9.922;2022-12-10T20:48:13;3.50;59.30
44729;DHT22;30457;53.590;9.922;2022-12-10T20:52:39;3.50;59.10
44729;DHT22;30457;53.590;9.922;2022-12-10T20:57:04;3.50;58.80
44729;DHT22;30457;53.590;9.922;2022-12-10T21:01:30;3.60;58.70
44729;DHT22;30457;53.590;9.922;2022-12-10T21:05:55;3.60;58.50
44729;DHT22;30457;53.590;9.922;2022-12-10T21:10:21;3.60;58.40
44729;DHT22;30457;53.590;9.922;2022-12-10T21:15:05;3.60;58.30
44729;DHT22;30457;53.590;9.922;2022-12-10T21:19:31;3.60;58.10
44729;DHT22;30457;53.590;9.922;2022-12-10T21:23:56;3.60;58.40
44729;DHT22;30457;53.590;9.922;2022-12-10T21:28:23;3.60;58.50
44729;DHT22;30457;53.590;9.922;2022-12-10T21:32:49;3.60;58.50
44729;DHT22;30457;53.590;9.922;2022-12-10T21:37:15;3.60;58.50
44729;DHT22;30457;53.590;9.922;2022-12-10T21:41:41;3.60;58.20
44729;DHT22;30457;53.590;9.922;2022-12-10T21:46:25;3.60;58.00
44729;DHT22;30457;53.590;9.922;2022-12-10T21:50:58;3.60;58.00
44729;DHT22;30457;53.590;9.922;2022-12-10T21:55:24;3.50;58.20
44729;DHT22;30457;53.590;9.922;2022-12-10T21:59:50;3.50;58.10
44729;DHT22;30457;53.590;9.922;2022-12-10T22:04:15;3.50;58.00
44729;DHT22;30457;53.590;9.922;2022-12-10T22:08:41;3.50;58.20
44729;DHT22;30457;53.590;9.922;2022-12-10T22:13:06;3.50;58.20
44729;DHT22;30457;53.590;9.922;2022-12-10T22:17:35;3.50;58.00
44729;DHT22;30457;53.590;9.922;2022-12-10T22:22:01;3.50;58.00
44729;DHT22;30457;53.590;9.922;2022-12-10T22:26:27;3.50;58.00
44729;DHT22;30457;53.590;9.922;2022-12-10T22:30:53;3.50;57.80
44729;DHT22;30457;53.590;9.922;2022-12-10T22:35:19;3.50;57.80
44729;DHT22;30457;53.590;9.922;2022-12-10T22:39:45;3.50;57.80
44729;DHT22;30457;53.590;9.922;2022-12-10T22:44:11;3.40;57.90
44729;DHT22;30457;53.590;9.922;2022-12-10T22:48:37;3.40;58.00
44729;DHT22;30457;53.590;9.922;2022-12-10T22:53:03;3.40;58.00
44729;DHT22;30457;53.590;9.922;2022-12-10T22:57:29;3.40;57.80
44729;DHT22;30457;53.590;9.922;2022-12-10T23:01:55;3.40;57.60
44729;DHT22;30457;53.590;9.922;2022-12-10T23:06:23;3.30;57.70
44729;DHT22;30457;53.590;9.922;2022-12-10T23:10:48;3.30;57.80
44729;DHT22;30457;53.590;9.922;2022-12-10T23:15:14;3.30;57.80
44729;DHT22;30457;53.590;9.922;2022-12-10T23:19:40;3.40;57.90
44729;DHT22;30457;53.590;9.922;2022-12-10T23:24:06;3.30;57.90
44729;DHT22;30457;53.590;9.922;2022-12-10T23:28:32;3.30;57.90
44729;DHT22;30457;53.590;9.922;2022-12-10T23:32:57;3.40;57.90
44729;DHT22;30457;53.590;9.922;2022-12-10T23:37:23;3.40;58.00
44729;DHT22;30457;53.590;9.922;2022-12-10T23:41:51;3.40;58.00
44729;DHT22;30457;53.590;9.922;2022-12-10T23:46:16;3.40;57.80
44729;DHT22;30457;53.590;9.922;2022-12-10T23:50:42;3.40;57.60
44729;DHT22;30457;53.590;9.922;2022-12-10T23:55:08;3.40;57.60
44729;DHT22;30457;53.590;9.922;2022-12-10T23:59:34;3.30;57.60
